Time;durP1;ratioP1;P1;durP2;ratioP2;P2;SDS_P1;SDS_P2;PMS_P1;PMS_P2;Temp;Humidity;BMP_temperature;BMP_pressure;BME280_temperature;BME280_humidity;BME280_pressure;Samples;Min_cycle;Max_cycle;Signal;HPM_P1;HPM_P2
2024/01/05 02:02:14;;;;;;;;;0.00;0.00;;;;;11.94;100.00;99384.94;5229218;23;45282;-85
2024/01/05 02:04:40;;;;;;;;;0.00;0.00;;;;;11.85;100.00;99390.34;4933731;28;44897;-84
2024/01/05 02:07:06;;;;;;;;;0.00;0.00;;;;;11.80;100.00;99387.75;4946963;28;45404;-83
2024/01/05 02:09:32;;;;;;;;;0.00;0.00;;;;;11.79;100.00;99396.63;4929751;28;45409;-84
2024/01/05 02:11:58;;;;;;;;;0.00;0.00;;;;;11.79;100.00;99388.63;4947332;28;45404;-84
2024/01/05 02:14:23;;;;;;;;;0.00;0.00;;;;;11.81;100.00;99393.06;4931207;28;44833;-84
2024/01/05 02:16:49;;;;;;;;;0.00;0.00;;;;;11.86;100.00;99389.44;4949866;28;45332;-84
2024/01/05 02:19:14;;;;;;;;;0.00;0.00;;;;;11.81;100.00;99373.50;4935039;28;45100;-85
2024/01/05 02:21:45;;;;;;;;;0.00;0.00;;;;;11.94;100.00;99395.59;4948025;28;44798;-84
2024/01/05 02:24:10;;;;;;;;;0.00;0.00;;;;;11.90;100.00;99393.88;4946037;28;44850;-85
2024/01/05 02:26:36;;;;;;;;;0.00;0.00;;;;;11.89;100.00;99392.97;4931006;28;47091;-84
2024/01/05 02:29:03;;;;;;;;;0.00;0.00;;;;;11.94;100.00;99401.78;4950024;28;44800;-84
2024/01/05 02:31:29;;;;;;;;;0.00;0.00;;;;;11.87;100.00;99396.53;4935737;28;45326;-84
2024/01/05 02:33:54;;;;;;;;;0.00;0.00;;;;;11.81;100.00;99394.81;4951834;28;44840;-84
2024/01/05 02:36:19;;;;;;;;;0.00;0.00;;;;;11.86;100.00;99397.44;4952013;28;45204;-84
2024/01/05 02:38:45;;;;;;;;;0.00;0.00;;;;;11.82;100.00;99386.81;4952766;28;44822;-84
2024/01/05 02:41:10;;;;;;;;;0.00;0.00;;;;;11.79;100.00;99386.84;4934944;28;45202;-84
2024/01/05 02:43:36;;;;;;;;;0.00;0.00;;;;;11.69;100.00;99385.19;4935739;28;45278;-85
2024/01/05 02:46:01;;;;;;;;;0.00;0.00;;;;;11.66;100.00;99395.03;4950593;28;45865;-83
2024/01/05 02:48:27;;;;;;;;;0.00;0.00;;;;;11.59;100.00;99395.09;4932572;28;45233;-84
2024/01/05 02:50:52;;;;;;;;;1.00;0.00;;;;;11.61;100.00;99403.03;4950033;28;44846;-85
2024/01/05 02:53:17;;;;;;;;;0.00;0.00;;;;;11.60;100.00;99395.97;4936076;28;45381;-84
2024/01/05 02:55:43;;;;;;;;;0.00;0.00;;;;;11.64;100.00;99413.66;4954568;28;45510;-84
2024/01/05 02:58:08;;;;;;;;;0.00;0.00;;;;;11.65;100.00;99409.22;4953007;28;45504;-84
2024/01/05 03:00:35;;;;;;;;;0.00;0.00;;;;;11.68;100.00;99399.41;4952759;28;45432;-84
2024/01/05 03:03:00;;;;;;;;;0.00;0.00;;;;;11.71;100.00;99422.47;4933373;28;44908;-84
2024/01/05 03:05:32;;;;;;;;;0.00;0.00;;;;;11.85;100.00;99422.31;4936174;28;45462;-84
2024/01/05 03:07:58;;;;;;;;;0.00;0.00;;;;;11.69;100.00;99422.47;4931253;28;44851;-84
2024/01/05 03:10:23;;;;;;;;;0.00;0.00;;;;;11.66;100.00;99411.88;4932161;28;44910;-84
2024/01/05 03:12:51;;;;;;;;;0.00;0.00;;;;;11.73;100.00;99429.53;4931457;28;45384;-84
2024/01/05 03:15:17;;;;;;;;;0.00;0.00;;;;;11.69;100.00;99433.13;4930301;28;47232;-84
2024/01/05 03:17:42;;;;;;;;;1.00;0.00;;;;;11.66;100.00;99426.97;4929630;28;44994;-84
2024/01/05 03:20:09;;;;;;;;;0.00;0.00;;;;;11.75;100.00;99438.38;4930190;28;44976;-84
2024/01/05 03:22:38;;;;;;;;;0.00;0.00;;;;;11.70;100.00;99428.72;4932482;28;44890;-84
2024/01/05 03:25:04;;;;;;;;;0.00;0.00;;;;;11.72;100.00;99442.88;4932498;28;48200;-84
2024/01/05 03:27:29;;;;;;;;;0.00;0.00;;;;;11.68;100.00;99425.19;4931317;28;45449;-84
2024/01/05 03:29:56;;;;;;;;;0.00;0.00;;;;;11.74;100.00;99435.75;4931074;28;45512;-84
2024/01/05 03:32:21;;;;;;;;;0.00;0.00;;;;;11.59;100.00;99440.38;4930595;28;44808;-85
2024/01/05 03:34:46;;;;;;;;;0.00;0.00;;;;;11.61;100.00;99442.97;4928712;28;45412;-85
2024/01/05 03:37:12;;;;;;;;;0.00;0.00;;;;;11.59;100.00;99447.44;4930758;28;45453;-84
2024/01/05 03:39:37;;;;;;;;;0.00;0.00;;;;;11.57;100.00;99439.50;4930434;28;45220;-84
2024/01/05 03:42:03;;;;;;;;;0.00;0.00;;;;;11.65;100.00;99458.03;4928487;28;45389;-84
2024/01/05 03:44:29;;;;;;;;;1.00;0.00;;;;;11.61;100.00;99446.56;4929052;28;45717;-85
2024/01/05 03:46:55;;;;;;;;;0.00;0.00;;;;;11.65;100.00;99443.84;4931704;28;44916;-83
2024/01/05 03:49:21;;;;;;;;;0.00;0.00;;;;;11.60;100.00;99463.41;4929110;28;44804;-84
2024/01/05 03:51:46;;;;;;;;;1.75;1.00;;;;;11.60;100.00;99459.88;4931031;28;45402;-84
2024/01/05 03:54:12;;;;;;;;;0.00;0.00;;;;;11.57;100.00;99457.22;4929414;28;47014;-85
2024/01/05 03:56:46;;;;;;;;;0.00;0.00;;;;;11.69;100.00;99465.09;4929928;28;45435;-84
2024/01/05 03:59:12;;;;;;;;;0.00;0.00;;;;;11.59;100.00;99464.31;4928573;28;45353;-84
2024/01/05 04:01:45;;;;;;;;;0.00;0.00;;;;;11.69;100.00;99465.09;4934666;28;44976;-84
2024/01/05 04:04:11;;;;;;;;;0.00;0.00;;;;;11.51;100.00;99442.22;4932482;28;46526;-84
2024/01/05 04:06:36;;;;;;;;;0.00;0.00;;;;;11.48;100.00;99462.66;4950129;28;45317;-84
2024/01/05 04:09:03;;;;;;;;;0.00;0.00;;;;;11.38;100.00;99449.44;4950577;28;45362;-85
2024/01/05 04:14:51;;;;;;;;;2.00;0.00;;;;;11.12;100.00;99454.13;4950150;28;44942;-84
2024/01/05 04:17:16;;;;;;;;;0.00;0.00;;;;;11.00;100.00;99442.69;4933452;28;44798;-84
2024/01/05 04:19:41;;;;;;;;;0.00;0.00;;;;;10.99;100.00;99459.56;4933911;28;45317;-84
2024/01/05 04:22:07;;;;;;;;;0.25;0.00;;;;;10.88;100.00;99457.88;4950938;28;44836;-85
2024/01/05 04:24:32;;;;;;;;;0.00;0.00;;;;;10.85;100.00;99468.56;4930856;28;47085;-84
2024/01/05 04:26:58;;;;;;;;;1.00;0.00;;;;;10.79;100.00;99458.84;4948264;28;45335;-84
2024/01/05 04:29:23;;;;;;;;;0.00;0.00;;;;;10.75;100.00;99465.06;4948185;28;45019;-84
2024/01/05 04:31:49;;;;;;;;;1.00;0.00;;;;;10.69;100.00;99441.19;4950100;28;44940;-84
2024/01/05 04:34:14;;;;;;;;;0.75;0.00;;;;;10.59;100.00;99446.56;4930251;28;47145;-84
2024/01/05 04:36:40;;;;;;;;;0.00;0.00;;;;;10.58;100.00;99455.44;4947659;28;45448;-84
2024/01/05 04:39:05;;;;;;;;;0.00;0.00;;;;;10.54;100.00;99444.81;4930269;28;45216;-84
2024/01/05 04:41:31;;;;;;;;;0.00;0.00;;;;;10.50;100.00;99451.97;4947478;28;45416;-84
2024/01/05 04:43:57;;;;;;;;;0.00;0.00;;;;;10.43;100.00;99450.22;4950586;28;45944;-84
2024/01/05 04:46:22;;;;;;;;;0.00;0.00;;;;;10.42;100.00;99456.41;4932489;28;45127;-85
2024/01/05 04:48:48;;;;;;;;;0.00;0.00;;;;;10.28;100.00;99445.84;4930840;28;44953;-85
2024/01/05 04:51:13;;;;;;;;;0.00;0.00;;;;;10.23;100.00;99441.44;4949362;28;45395;-84
2024/01/05 04:53:39;;;;;;;;;0.00;0.00;;;;;10.19;100.00;99446.75;4934711;28;47375;-85
2024/01/05 04:56:06;;;;;;;;;0.00;0.00;;;;;10.36;100.00;99469.72;4951502;28;45392;-85
2024/01/05 04:58:31;;;;;;;;;0.00;0.00;;;;;10.12;100.00;99445.03;4946707;28;45402;-85
2024/01/05 05:00:57;;;;;;;;;0.50;0.50;;;;;10.21;100.00;99468.00;4950011;28;44892;-85
2024/01/05 05:03:24;;;;;;;;;0.00;0.00;;;;;10.21;100.00;99471.53;4948074;28;45483;-85
2024/01/05 05:05:55;;;;;;;;;0.00;0.00;;;;;10.19;100.00;99467.13;4947298;28;45457;-85
2024/01/05 05:08:20;;;;;;;;;0.00;0.00;;;;;10.12;100.00;99465.38;4930986;28;44920;-85
2024/01/05 05:10:46;;;;;;;;;0.00;0.00;;;;;10.08;100.00;99466.28;4930330;28;45612;-85
2024/01/05 05:13:11;;;;;;;;;0.00;0.00;;;;;10.07;100.00;99477.81;4930570;28;46925;-85
2024/01/05 05:15:37;;;;;;;;;0.00;0.00;;;;;10.05;100.00;99477.81;4951337;28;44762;-85
2024/01/05 05:18:03;;;;;;;;;1.00;0.00;;;;;10.01;100.00;99468.09;4950510;28;44768;-84
2024/01/05 05:20:28;;;;;;;;;0.00;0.00;;;;;10.01;100.00;99478.72;4930917;28;45506;-85
2024/01/05 05:22:54;;;;;;;;;0.00;0.00;;;;;9.97;100.00;99477.84;4949437;28;47223;-85
2024/01/05 05:25:20;;;;;;;;;1.75;0.00;;;;;9.95;100.00;99476.97;4949537;28;44978;-84
2024/01/05 05:27:45;;;;;;;;;0.00;0.00;;;;;9.96;100.00;99477.88;4950044;28;44910;-85
2024/01/05 05:33:33;;;;;;;;;0.00;0.00;;;;;9.91;100.00;99471.69;4949479;28;46326;-84
2024/01/05 05:35:58;;;;;;;;;0.00;0.00;;;;;9.88;100.00;99466.41;4932785;28;45504;-84
2024/01/05 05:38:24;;;;;;;;;0.00;0.00;;;;;9.87;100.00;99481.44;4949331;28;45591;-81
2024/01/05 05:40:49;;;;;;;;;0.00;0.00;;;;;9.85;100.00;99479.69;4926999;28;45444;-81
2024/01/05 05:43:15;;;;;;;;;0.00;0.00;;;;;9.89;100.00;99490.28;4924436;28;48231;-81
2024/01/05 05:49:02;;;;;;;;;2.00;0.50;;;;;9.81;100.00;99477.00;4943788;28;45366;-82
2024/01/05 05:51:28;;;;;;;;;0.00;0.00;;;;;9.81;100.00;99484.09;4924818;28;45290;-83
2024/01/05 05:53:54;;;;;;;;;0.00;0.00;;;;;9.81;100.00;99490.28;4924411;28;47210;-82
2024/01/05 05:56:19;;;;;;;;;0.00;0.00;;;;;9.80;100.00;99493.84;4924894;28;45651;-83
2024/01/05 05:58:52;;;;;;;;;1.00;1.00;;;;;9.88;100.00;99492.97;4940327;28;45750;-82
2024/01/05 06:01:18;;;;;;;;;1.00;0.00;;;;;9.81;100.00;99513.31;4941159;28;45318;-82
2024/01/05 06:03:43;;;;;;;;;1.33;1.33;;;;;9.78;100.00;99502.72;4941979;28;46546;-83
2024/01/05 06:06:17;;;;;;;;;0.00;0.00;;;;;9.82;100.00;99500.03;4927721;28;45480;-82
2024/01/05 06:08:44;;;;;;;;;0.00;0.00;;;;;9.68;100.00;99512.47;4945793;28;45352;-82
2024/01/05 06:11:09;;;;;;;;;0.00;0.00;;;;;9.63;100.00;99511.56;4944110;28;45501;-82
2024/01/05 06:13:35;;;;;;;;;0.00;0.00;;;;;9.56;100.00;99507.19;4944519;28;46431;-82
2024/01/05 06:16:01;;;;;;;;;0.67;0.00;;;;;9.53;100.00;99515.13;4926967;28;45534;-82
2024/01/05 06:18:27;;;;;;;;;0.67;0.67;;;;;9.52;100.00;99524.88;4927067;28;45342;-82
2024/01/05 06:20:52;;;;;;;;;1.00;1.00;;;;;9.52;100.00;99526.66;4927846;28;45409;-82
2024/01/05 06:23:18;;;;;;;;;0.00;0.00;;;;;9.50;100.00;99536.41;4945655;28;46568;-82
2024/01/05 06:25:43;;;;;;;;;0.00;0.00;;;;;9.47;100.00;99533.72;4945961;28;45546;-83
2024/01/05 06:28:10;;;;;;;;;0.00;0.00;;;;;9.37;100.00;99525.78;4947464;28;45364;-83
2024/01/05 06:30:35;;;;;;;;;0.00;0.00;;;;;9.39;100.00;99542.59;4913749;28;45608;-82
2024/01/05 06:33:00;;;;;;;;;1.00;1.00;;;;;9.30;100.00;99526.66;4928469;28;48523;-83
2024/01/05 06:38:47;;;;;;;;;0.00;0.00;;;;;9.27;100.00;99525.78;4945609;28;45400;-82
2024/01/05 06:41:13;;;;;;;;;0.00;0.00;;;;;9.30;100.00;99534.63;4927229;28;45321;-82
2024/01/05 06:43:41;;;;;;;;;0.00;0.00;;;;;9.39;100.00;99536.38;4944145;28;45522;-83
2024/01/05 06:46:07;;;;;;;;;0.00;0.00;;;;;9.27;100.00;99550.56;4926556;28;45426;-82
2024/01/05 06:48:32;;;;;;;;;2.00;1.67;;;;;9.21;100.00;99529.34;4942499;28;45338;-82
2024/01/05 06:50:57;;;;;;;;;0.00;0.00;;;;;9.22;100.00;99547.00;4944182;28;45394;-82
2024/01/05 06:53:23;;;;;;;;;0.00;0.00;;;;;9.23;100.00;99551.44;4944965;28;45393;-82
2024/01/05 06:55:49;;;;;;;;;0.67;0.67;;;;;9.29;100.00;99555.84;4944118;28;45437;-82
2024/01/05 06:58:14;;;;;;;;;1.00;0.00;;;;;9.22;100.00;99560.28;4926049;28;45473;-82
2024/01/05 07:00:40;;;;;;;;;0.33;0.33;;;;;9.20;100.00;99552.31;4927509;28;44870;-81
2024/01/05 07:03:05;;;;;;;;;1.00;1.00;;;;;9.17;100.00;99554.06;4927171;28;48018;-81
2024/01/05 07:05:32;;;;;;;;;0.33;0.00;;;;;9.21;100.00;99563.81;4929097;28;44885;-82
2024/01/05 07:07:57;;;;;;;;;1.00;1.00;;;;;9.24;100.00;99573.53;4926838;28;45490;-81
2024/01/05 07:10:23;;;;;;;;;0.75;0.75;;;;;9.28;100.00;99577.97;4927402;28;44919;-83
2024/01/05 07:12:50;;;;;;;;;2.67;2.67;;;;;9.36;100.00;99574.41;4945063;28;48139;-84
2024/01/05 07:15:15;;;;;;;;;2.67;2.67;;;;;9.25;100.00;99578.84;4911139;28;45463;-84
2024/01/05 07:17:43;;;;;;;;;1.00;1.00;;;;;9.27;100.00;99570.88;4914252;28;45430;-84
2024/01/05 07:20:11;;;;;;;;;1.67;1.00;;;;;9.22;100.00;99573.53;4929887;28;45091;-82
2024/01/05 07:22:37;;;;;;;;;1.25;0.25;;;;;9.19;100.00;99571.78;4934828;28;45426;-82
2024/01/05 07:25:03;;;;;;;;;0.00;0.00;;;;;9.23;100.00;99577.06;4929320;28;45508;-81
2024/01/05 07:27:29;;;;;;;;;0.00;0.00;;;;;9.23;100.00;99580.63;4910704;28;45341;-82
2024/01/05 07:29:55;;;;;;;;;0.67;0.00;;;;;9.23;100.00;99577.97;4907092;29;45648;-83
2024/01/05 07:32:21;;;;;;;;;1.00;1.00;;;;;9.25;100.00;99580.59;4903549;29;45449;-82
2024/01/05 07:34:46;;;;;;;;;0.00;0.00;;;;;9.24;100.00;99595.63;4904682;28;45500;-82
2024/01/05 07:37:12;;;;;;;;;0.00;0.00;;;;;9.21;100.00;99585.91;4904655;29;45451;-82
2024/01/05 07:39:38;;;;;;;;;0.00;0.00;;;;;9.06;100.00;99569.09;4921296;28;44957;-82
2024/01/05 07:42:04;;;;;;;;;0.00;0.00;;;;;9.09;100.00;99590.31;4941258;28;47889;-82
2024/01/05 07:44:30;;;;;;;;;1.00;1.00;;;;;9.02;100.00;99592.94;4926439;28;45527;-81
2024/01/05 07:47:00;;;;;;;;;3.00;3.00;;;;;9.05;100.00;99588.53;4927336;28;45503;-82
2024/01/05 07:49:53;;;;;;;;;0.00;0.00;;;;;9.18;100.00;99591.22;4925766;28;45500;-82
2024/01/05 07:52:24;;;;;;;;;2.67;1.00;;;;;9.08;100.00;99575.28;4888642;29;46505;-81
2024/01/05 07:54:55;;;;;;;;;1.00;1.00;;;;;9.12;100.00;99595.63;4875185;29;45616;-81
2024/01/05 07:57:38;;;;;;;;;2.00;2.00;;;;;8.99;100.00;99555.84;4874661;29;44847;-81
2024/01/05 08:00:19;;;;;;;;;1.00;1.00;;;;;9.16;100.00;99602.72;4873778;29;44890;-82
2024/01/05 08:03:05;;;;;;;;;1.67;0.33;;;;;9.27;100.00;99600.97;4872017;29;45549;-80
2024/01/05 08:05:45;;;;;;;;;1.33;1.00;;;;;9.21;100.00;99590.34;4862770;29;44864;-81
2024/01/05 08:11:32;;;;;;;;;0.00;0.00;;;;;9.17;100.00;99586.81;4879387;29;45180;-82
2024/01/05 08:14:10;;;;;;;;;0.33;0.33;;;;;9.30;100.00;99602.72;4861619;29;45002;-81
2024/01/05 08:16:42;;;;;;;;;1.00;1.00;;;;;9.44;100.00;99616.00;4857981;29;44930;-82
2024/01/05 08:19:25;;;;;;;;;0.33;0.33;;;;;9.35;100.00;99617.78;4860061;29;44940;-81
2024/01/05 08:21:55;;;;;;;;;2.33;1.00;;;;;9.46;100.00;99630.16;4872641;29;44922;-81
2024/01/05 08:24:25;;;;;;;;;2.00;1.00;;;;;9.14;100.00;99583.25;4867378;29;45456;-81
2024/01/05 08:38:04;;;;;;;;;2.00;1.33;;;;;9.59;100.00;99621.31;4871810;26;45516;-82
2024/01/05 09:24:12;;;;;;;;;2.33;0.33;;;;;9.76;100.00;99643.44;4864012;29;45558;-84
2024/01/05 09:26:46;;;;;;;;;1.00;1.00;;;;;9.87;100.00;99634.56;4849303;29;45461;-84
2024/01/05 09:29:29;;;;;;;;;;;;;;;;;;;;;
2024/01/05 09:32:34;;;;;;;;;;;;;;;;;;;;;
2024/01/05 09:35:31;;;;;;;;;1.67;1.67;;;;;10.01;100.00;99652.25;4858097;29;74621;-82
2024/01/05 09:38:17;;;;;;;;;1.00;1.00;;;;;10.25;100.00;99689.44;4889818;28;44920;-82
2024/01/05 09:40:53;;;;;;;;;0.33;0.33;;;;;10.13;100.00;99685.91;4930424;28;45482;-83
2024/01/05 09:47:01;;;;;;;;;3.00;2.00;;;;;10.24;100.00;99662.00;4950993;28;44841;-81
2024/01/05 09:53:42;;;;;;;;;0.00;0.00;;;;;10.43;100.00;99683.25;4939457;28;44924;-81
2024/01/05 09:56:10;;;;;;;;;1.00;1.00;;;;;10.30;100.00;99695.66;4926538;28;47561;-83
2024/01/05 09:59:17;;;;;;;;;;;;;;;;;;;;;
2024/01/05 10:02:34;;;;;;;;;1.00;1.00;;;;;10.47;100.00;99714.25;4952828;28;68233;-83
2024/01/05 10:05:46;;;;;;;;;2.33;1.33;;;;;10.50;100.00;99712.47;4938655;28;44931;-82
2024/01/05 10:08:15;;;;;;;;;1.67;1.67;;;;;10.55;100.00;99715.97;4934842;28;46957;-83
2024/01/05 10:11:23;;;;;;;;;;;;;;;;;;;;;
2024/01/05 10:14:33;;;;;;;;;3.00;1.00;;;;;10.43;100.00;99684.13;4950784;28;68042;-83
2024/01/05 10:17:14;;;;;;;;;1.00;1.00;;;;;10.58;100.00;99700.03;4921792;28;45564;-82
2024/01/05 10:20:49;;;;;;;;;0.00;0.00;;;;;10.86;100.00;99730.97;4910473;28;46925;-83
2024/01/05 10:23:28;;;;;;;;;1.33;1.00;;;;;10.93;100.00;99728.28;4933842;28;44835;-84
2024/01/05 10:25:57;;;;;;;;;1.67;1.67;;;;;10.75;100.00;99712.41;4917760;28;45472;-84
2024/01/05 10:31:37;;;;;;;;;2.33;1.00;;;;;11.09;100.00;99722.88;4933544;28;45301;-83
2024/01/05 10:34:37;;;;;;;;;1.00;1.00;;;;;11.06;100.00;99713.16;4929742;28;45501;-83
2024/01/05 10:37:10;;;;;;;;;1.00;1.00;;;;;11.00;100.00;99698.09;4908429;28;45429;-83
2024/01/05 10:40:28;;;;;;;;;0.00;0.00;;;;;11.12;100.00;99709.56;4926403;28;45473;-83
2024/01/05 10:43:17;;;;;;;;;1.33;1.33;;;;;11.19;100.00;99719.31;4848532;29;46191;-83
2024/01/05 10:48:33;;;;;;;;;;;;;;;;;;;;;
2024/01/05 10:53:55;;;;;;;;;0.00;0.00;;;;;10.93;100.00;99669.75;5682733;23;46356;-79
2024/01/05 10:56:34;;;;;;;;;0.67;0.67;;;;;10.84;100.00;99659.16;4945422;28;45516;-82
2024/01/05 11:06:45;;;;;;;;;0.75;0.75;;;;;10.90;100.00;99679.53;3729199;23;46021;-82
2024/01/05 11:15:18;;;;;;;;;0.00;0.00;;;;;11.13;100.00;99679.41;4989947;23;46797;-82
2024/01/05 11:20:45;;;;;;;;;1.25;0.50;;;;;11.12;100.00;99685.63;4948905;23;45607;-83
2024/01/05 11:25:48;;;;;;;;;1.00;1.00;;;;;11.11;100.00;99683.84;4884845;26;45181;-81
2024/01/05 11:28:45;;;;;;;;;0.00;0.00;;;;;11.05;100.00;99657.28;4938224;28;44894;-82
2024/01/05 11:44:36;;;;;;;;;3.67;2.00;;;;;11.07;100.00;99688.31;5734002;23;45374;-81
2024/01/05 12:01:49;;;;;;;;;1.67;1.67;;;;;11.28;100.00;99681.97;4971096;23;46081;-84
2024/01/05 12:04:17;;;;;;;;;2.00;2.00;;;;;11.19;100.00;99666.09;4932029;28;45414;-83
2024/01/05 12:06:50;;;;;;;;;1.67;1.00;;;;;11.15;100.00;99675.88;4948515;28;45468;-84
2024/01/05 12:09:18;;;;;;;;;1.00;1.00;;;;;10.96;100.00;99667.06;4928948;28;47236;-83
2024/01/05 12:11:47;;;;;;;;;1.33;1.33;;;;;11.16;100.00;99687.38;4926778;28;45952;-81
2024/01/05 12:14:28;;;;;;;;;1.00;1.00;;;;;11.23;100.00;99690.88;4911199;28;45567;-84
2024/01/05 12:20:45;;;;;;;;;2.00;1.00;;;;;10.87;100.00;99616.59;4827487;29;45637;-82
2024/01/05 12:23:12;;;;;;;;;1.33;1.33;;;;;11.30;100.00;99668.69;4839510;29;45506;-84
2024/01/05 12:26:51;;;;;;;;;2.00;1.33;;;;;11.40;100.00;99675.72;4893289;29;45286;-82
2024/01/05 12:30:02;;;;;;;;;1.00;1.00;;;;;11.47;100.00;99681.88;4835428;29;45435;-83
2024/01/05 12:35:48;;;;;;;;;1.00;1.00;;;;;11.49;100.00;99683.66;4833652;29;44760;-84
2024/01/05 12:38:32;;;;;;;;;1.33;1.33;;;;;11.52;100.00;99675.63;4814340;29;44919;-85
2024/01/05 12:41:46;;;;;;;;;2.67;2.00;;;;;11.72;100.00;99691.47;4815722;29;45683;-83
2024/01/05 12:44:18;;;;;;;;;1.00;1.00;;;;;11.50;100.00;99642.81;4831056;29;45720;-84
2024/01/05 12:46:59;;;;;;;;;;;;;;;;;;;;;
2024/01/05 12:49:27;;;;;;;;;0.67;0.67;;;;;11.34;100.00;99634.03;4833077;29;68137;-84
2024/01/05 12:52:01;;;;;;;;;0.00;0.00;;;;;11.66;100.00;99672.00;4849096;29;45503;-84
2024/01/05 12:54:42;;;;;;;;;0.00;0.00;;;;;11.37;100.00;99631.38;4834650;29;45597;-83
2024/01/05 12:57:20;;;;;;;;;0.67;0.67;;;;;11.45;100.00;99633.06;4833609;29;45463;-83
2024/01/05 13:00:27;;;;;;;;;3.33;2.00;;;;;11.71;100.00;99671.03;4833706;29;45055;-83
2024/01/05 13:06:44;;;;;;;;;0.50;0.00;;;;;11.74;100.00;99665.69;4851635;29;45500;-85
2024/01/05 13:13:32;;;;;;;;;2.00;1.00;;;;;11.72;100.00;99655.97;4841595;29;45534;-85
2024/01/05 13:16:05;;;;;;;;;1.00;1.00;;;;;11.73;100.00;99652.38;4836722;29;45668;-85
2024/01/05 13:18:42;;;;;;;;;2.00;2.00;;;;;11.81;100.00;99671.84;4838057;29;46838;-84
2024/01/05 13:21:31;;;;;;;;;2.00;2.00;;;;;11.97;100.00;99644.22;4845324;29;44826;-84
2024/01/05 13:24:17;;;;;;;;;2.67;1.00;;;;;12.28;100.00;99664.34;4839677;29;45509;-83
2024/01/05 13:26:46;;;;;;;;;1.33;1.33;;;;;12.19;100.00;99647.53;4860264;29;45872;-84
2024/01/05 13:30:13;;;;;;;;;;;;;;;;;;;;;
2024/01/05 13:32:42;;;;;;;;;1.00;0.00;;;;;12.15;100.00;99635.16;4865612;29;45394;-84
2024/01/05 13:35:16;;;;;;;;;2.00;1.00;;;;;12.25;100.00;99675.06;4850009;29;45434;-84
2024/01/05 13:54:31;;;;;;;;;0.00;0.00;;;;;11.85;100.00;99692.25;5096363;23;46749;-85
2024/01/05 13:57:52;;;;;;;;;0.00;0.00;;;;;11.72;100.00;99699.44;4820353;29;45599;-84
2024/01/05 14:00:49;;;;;;;;;;;;;;;;;;;;;
2024/01/05 14:03:28;;;;;;;;;0.00;0.00;;;;;11.52;100.00;99683.59;4813030;29;75433;-83
2024/01/05 14:06:12;;;;;;;;;1.00;1.00;;;;;11.35;100.00;99674.84;4831682;29;45244;-84
2024/01/05 14:09:25;;;;;;;;;0.67;0.67;;;;;11.61;100.00;99696.88;4813004;29;45383;-83
2024/01/05 14:17:33;;;;;;;;;2.00;0.00;;;;;11.68;100.00;99708.34;5849902;23;46559;-84
2024/01/05 14:20:17;;;;;;;;;1.00;1.00;;;;;11.71;100.00;99708.31;5427491;23;45797;-83
2024/01/05 15:21:31;;;;;;;;;1.67;1.67;;;;;11.82;100.00;99732.25;5011836;23;45613;-87
2024/01/05 15:38:20;;;;;;;;;2.00;2.00;;;;;11.47;100.00;99757.28;4965021;28;45027;-85
2024/01/05 15:41:43;;;;;;;;;1.75;1.75;;;;;11.38;100.00;99749.38;4935087;28;45504;-84
2024/01/05 15:44:13;;;;;;;;;1.00;1.00;;;;;11.14;100.00;99737.06;4852828;29;47314;-85
2024/01/05 15:57:20;;;;;;;;;1.25;1.25;;;;;11.23;100.00;99763.66;4552120;23;46216;-84
2024/01/05 15:59:53;;;;;;;;;0.00;0.00;;;;;11.24;100.00;99764.53;4952667;28;44872;-81
2024/01/05 16:03:02;;;;;;;;;1.00;1.00;;;;;11.00;100.00;99732.66;4949072;28;44933;-82
2024/01/05 16:05:34;;;;;;;;;2.33;2.33;;;;;11.07;100.00;99730.91;4853411;29;45457;-82
2024/01/05 16:08:23;;;;;;;;;2.00;2.00;;;;;11.14;100.00;99739.72;4853367;29;44924;-83
2024/01/05 16:11:30;;;;;;;;;1.67;1.67;;;;;11.25;100.00;99764.53;4850351;29;44883;-84
2024/01/05 16:14:10;;;;;;;;;2.00;2.00;;;;;11.15;100.00;99762.78;4858404;29;44889;-81
2024/01/05 16:16:39;;;;;;;;;2.00;2.00;;;;;10.98;100.00;99753.06;4855974;29;46720;-81
2024/01/05 16:22:15;;;;;;;;;1.00;1.00;;;;;11.04;100.00;99757.50;4855011;29;44809;-82
2024/01/05 16:24:45;;;;;;;;;1.00;1.00;;;;;10.91;100.00;99761.09;4846856;29;44954;-82
2024/01/05 16:27:14;;;;;;;;;1.00;1.00;;;;;10.81;100.00;99763.78;4846093;29;47232;-82
2024/01/05 16:29:42;;;;;;;;;1.00;1.00;;;;;11.07;100.00;99793.84;5143998;23;44987;-83
2024/01/05 16:32:11;;;;;;;;;3.00;3.00;;;;;11.04;100.00;99793.88;4947693;28;44981;-83
2024/01/05 16:34:46;;;;;;;;;0.33;0.33;;;;;10.84;100.00;99788.59;4948587;28;45054;-83
2024/01/05 16:37:13;;;;;;;;;2.67;2.00;;;;;10.85;100.00;99804.56;4944609;28;46860;-83
2024/01/05 16:39:39;;;;;;;;;2.67;2.67;;;;;10.81;100.00;99800.16;4946573;28;44768;-83
2024/01/05 16:42:04;;;;;;;;;3.00;3.00;;;;;10.75;100.00;99802.81;4962056;28;44872;-83
2024/01/05 16:49:49;;;;;;;;;2.00;2.00;;;;;10.51;100.00;99806.38;4995325;23;45586;-81
2024/01/05 16:52:18;;;;;;;;;4.00;2.67;;;;;10.18;100.00;99769.16;4944585;28;44896;-81
2024/01/05 16:54:46;;;;;;;;;2.00;2.00;;;;;10.38;100.00;99798.44;4956434;28;45335;-81
2024/01/05 16:57:14;;;;;;;;;3.33;3.00;;;;;10.25;100.00;99785.09;4937594;28;47082;-82
2024/01/05 16:59:48;;;;;;;;;6.67;6.67;;;;;10.14;100.00;99770.03;4955792;28;45287;-83
2024/01/05 17:02:14;;;;;;;;;2.00;2.00;;;;;10.26;100.00;99813.44;4916032;29;45349;-83
2024/01/05 17:04:39;;;;;;;;;6.33;4.00;;;;;10.24;100.00;99810.78;4918008;29;44951;-83
2024/01/05 17:07:05;;;;;;;;;3.33;3.33;;;;;10.06;100.00;99779.78;4885853;28;47299;-83
2024/01/05 17:09:32;;;;;;;;;3.00;3.00;;;;;10.15;100.00;99803.69;4905304;29;44921;-83
2024/01/05 17:12:05;;;;;;;;;8.00;4.00;;;;;10.19;100.00;99808.13;4917866;28;44827;-82
2024/01/05 17:14:33;;;;;;;;;6.67;6.00;;;;;10.09;100.00;99811.66;4902891;29;44951;-82
2024/01/05 17:16:59;;;;;;;;;3.00;3.00;;;;;10.11;100.00;99812.53;4908307;29;47509;-83
2024/01/05 17:19:27;;;;;;;;;4.00;4.00;;;;;10.11;100.00;99827.59;4924437;28;45392;-82
2024/01/05 17:22:04;;;;;;;;;6.00;4.00;;;;;9.95;100.00;99793.03;4909256;28;44828;-82
2024/01/05 17:24:34;;;;;;;;;4.67;4.00;;;;;10.07;100.00;99829.34;4906576;29;44965;-81
2024/01/05 17:27:12;;;;;;;;;;;;;;;;;;;;;
2024/01/05 17:29:41;;;;;;;;;9.00;7.33;;;;;9.92;100.00;99813.41;4923534;28;72061;-82
2024/01/05 17:32:06;;;;;;;;;5.67;5.33;;;;;10.07;100.00;99845.28;4908067;28;44821;-82
2024/01/05 17:34:32;;;;;;;;;7.67;6.67;;;;;9.86;100.00;99801.00;4963892;28;44796;-83
2024/01/05 17:37:00;;;;;;;;;9.67;7.00;;;;;10.09;100.00;99846.19;4945990;28;47256;-82
2024/01/05 17:39:40;;;;;;;;;;;;;;;;;;;;;
2024/01/05 17:42:10;;;;;;;;;13.67;10.00;;;;;9.97;100.00;99848.81;4915746;28;68207;-82
2024/01/05 17:45:02;;;;;;;;;10.33;10.33;;;;;10.00;100.00;99847.06;4902728;28;44864;-82
2024/01/05 17:47:29;;;;;;;;;9.00;8.33;;;;;9.93;100.00;99857.66;4911658;28;45489;-82
2024/01/05 17:49:59;;;;;;;;;11.00;7.67;;;;;9.86;100.00;99829.34;4919337;28;44922;-82
2024/01/05 17:52:28;;;;;;;;;9.33;8.00;;;;;9.75;100.00;99826.63;4922073;28;44794;-82
2024/01/05 17:54:56;;;;;;;;;11.00;9.67;;;;;9.89;100.00;99866.50;4924375;28;44960;-83
2024/01/05 17:57:21;;;;;;;;;12.00;10.00;;;;;9.79;100.00;99850.53;4925354;28;46858;-82
2024/01/05 17:59:49;;;;;;;;;8.00;8.00;;;;;9.88;100.00;99865.63;4921798;28;44867;-83
2024/01/05 18:02:14;;;;;;;;;12.67;9.67;;;;;9.74;100.00;99849.66;4922817;28;44770;-81
2024/01/05 18:04:51;;;;;;;;;9.00;8.00;;;;;9.91;100.00;99872.72;4965659;23;45374;-81
2024/01/05 18:07:32;;;;;;;;;8.00;8.00;;;;;9.82;100.00;99861.19;5297468;23;47534;-82
2024/01/05 18:10:01;;;;;;;;;7.00;7.00;;;;;9.67;100.00;99839.88;4925576;28;44767;-83
2024/01/05 18:12:37;;;;;;;;;18.67;12.33;;;;;9.63;100.00;99853.16;4943194;28;44893;-83
2024/01/05 18:16:07;;;;;;;;;11.00;11.00;;;;;9.78;100.00;99888.63;4943109;28;44828;-83
2024/01/05 18:44:26;;;;;;;;;11.00;8.00;;;;;9.56;100.00;99922.16;4768463;23;45094;-82
2024/01/05 18:46:51;;;;;;;;;12.67;12.67;;;;;9.62;100.00;99931.91;4966840;28;44788;-83
2024/01/05 18:49:24;;;;;;;;;13.00;12.00;;;;;9.69;100.00;99938.13;4949703;28;46833;-84
2024/01/05 18:51:53;;;;;;;;;18.00;17.00;;;;;9.60;100.00;99917.75;4950276;28;44795;-83
2024/01/05 18:54:26;;;;;;;;;15.67;14.33;;;;;9.75;100.00;99943.47;4967120;28;44841;-83
2024/01/05 18:56:52;;;;;;;;;11.00;10.00;;;;;9.80;100.00;99939.97;4950007;28;45242;-83